Time;durP1;ratioP1;P1;durP2;ratioP2;P2;SDS_P1;SDS_P2;PMS_P1;PMS_P2;Temp;Humidity;BMP_temperature;BMP_pressure;BME280_temperature;BME280_humidity;BME280_pressure;Samples;Min_cycle;Max_cycle;Signal;HPM_P1;HPM_P2
2022/09/09 00:01:24;;;;;;;7.33;4.10;;;;;;;13.17;100.00;100635.94;5035692;28;20036;-86
2022/09/09 00:04:12;;;;;;;5.83;3.60;;;;;;;13.22;100.00;100642.56;5035258;28;20574;-86
2022/09/09 00:07:02;;;;;;;4.90;3.57;;;;;;;13.21;100.00;100636.31;5036238;28;20029;-87
2022/09/09 00:09:30;;;;;;;6.67;3.93;;;;;;;13.14;100.00;100630.16;5036871;28;20466;-85
2022/09/09 00:12:06;;;;;;;7.20;3.90;;;;;;;13.15;100.00;100631.78;5036469;28;20499;-86
2022/09/09 00:14:39;;;;;;;6.37;4.03;;;;;;;13.14;100.00;100632.88;5036556;28;20033;-86
2022/09/09 00:17:12;;;;;;;5.47;4.07;;;;;;;13.14;100.00;100635.59;5037092;28;20029;-86
2022/09/09 00:20:16;;;;;;;5.30;3.97;;;;;;;13.15;100.00;100623.63;5036855;28;20032;-85
2022/09/09 00:22:50;;;;;;;5.83;4.20;;;;;;;13.13;100.00;100623.06;4983470;28;20045;-86
2022/09/09 00:25:37;;;;;;;6.30;4.20;;;;;;;13.10;100.00;100623.53;5016942;28;20091;-86
2022/09/09 00:28:10;;;;;;;7.83;4.70;;;;;;;13.08;100.00;100631.06;5036016;28;20079;-86
2022/09/09 00:30:37;;;;;;;7.43;4.40;;;;;;;13.09;100.00;100617.25;5035547;28;20045;-87
2022/09/09 00:33:14;;;;;;;6.57;4.37;;;;;;;13.10;100.00;100626.25;5035451;28;20650;-86
2022/09/09 00:35:44;;;;;;;4.23;3.83;;;;;;;13.11;100.00;100622.44;5036355;28;20033;-85
2022/09/09 00:38:25;;;;;;;5.73;4.20;;;;;;;13.12;100.00;100621.38;5035677;28;20044;-86
2022/09/09 00:41:01;;;;;;;7.10;4.20;;;;;;;13.07;100.00;100619.38;5036225;28;20123;-85
2022/09/09 00:43:32;;;;;;;6.47;4.30;;;;;;;13.05;100.00;100616.06;5033138;28;20123;-86
2022/09/09 00:46:18;;;;;;;4.73;4.30;;;;;;;13.09;100.00;100611.78;5035902;28;20433;-86
2022/09/09 00:48:57;;;;;;;4.37;3.80;;;;;;;13.05;100.00;100605.16;5036021;28;20515;-86
2022/09/09 00:51:39;;;;;;;4.50;4.10;;;;;;;13.03;100.00;100603.75;5035487;28;20357;-86
2022/09/09 00:54:25;;;;;;;7.70;4.00;;;;;;;13.00;100.00;100595.00;5005157;28;20045;-86
2022/09/09 00:57:00;;;;;;;6.60;4.20;;;;;;;13.02;100.00;100599.41;5035704;28;20040;-86
2022/09/09 00:59:36;;;;;;;5.80;3.90;;;;;;;13.00;100.00;100603.16;5035820;28;20393;-86
2022/09/09 01:02:16;;;;;;;5.80;3.70;;;;;;;13.00;100.00;100591.44;5034242;28;20075;-85
2022/09/09 01:04:42;;;;;;;6.80;3.77;;;;;;;12.93;100.00;100582.56;5035509;28;20048;-86
2022/09/09 01:07:17;;;;;;;6.30;4.00;;;;;;;12.96;100.00;100591.09;5035476;28;20033;-85
2022/09/09 01:09:59;;;;;;;5.20;3.83;;;;;;;12.96;100.00;100593.81;5035482;28;20033;-85
2022/09/09 01:12:26;;;;;;;9.47;4.20;;;;;;;13.00;100.00;100596.88;5035087;28;20128;-86
2022/09/09 01:15:01;;;;;;;8.07;3.70;;;;;;;13.01;100.00;100595.81;5020846;28;20020;-86
2022/09/09 01:17:32;;;;;;;5.10;3.77;;;;;;;13.00;100.00;100592.28;5035182;28;20037;-85
2022/09/09 01:19:58;;;;;;;6.40;3.87;;;;;;;13.04;100.00;100597.25;5035554;28;20100;-85
2022/09/09 01:22:45;;;;;;;5.63;3.17;;;;;;;13.04;100.00;100598.09;5035150;28;20120;-85
2022/09/09 01:25:29;;;;;;;5.33;3.67;;;;;;;13.07;100.00;100596.78;5034777;28;20118;-86
2022/09/09 01:28:06;;;;;;;5.47;3.72;;;;;;;13.00;100.00;100591.44;5034710;28;21298;-85
2022/09/09 01:30:33;;;;;;;5.20;3.40;;;;;;;13.04;100.00;100592.66;5035052;28;20431;-86
2022/09/09 01:33:00;;;;;;;6.03;3.47;;;;;;;13.03;100.00;100596.44;5034821;28;20123;-85
2022/09/09 01:35:37;;;;;;;5.23;3.67;;;;;;;13.06;100.00;100595.13;5034460;28;20488;-86
2022/09/09 01:38:03;;;;;;;6.73;3.20;;;;;;;13.09;100.00;100594.66;5034929;28;20049;-85
2022/09/09 01:40:28;;;;;;;4.30;3.07;;;;;;;13.12;100.00;100594.19;5035136;28;20122;-84
2022/09/09 01:42:54;;;;;;;3.90;3.20;;;;;;;13.12;100.00;100588.75;5035114;28;20397;-85
2022/09/09 01:45:21;;;;;;;7.93;3.60;;;;;;;13.09;100.00;100594.66;5034075;28;20761;-85
2022/09/09 01:47:47;;;;;;;5.47;3.67;;;;;;;13.12;100.00;100588.75;5034319;28;20504;-86
2022/09/09 01:50:20;;;;;;;6.80;3.60;;;;;;;13.11;100.00;100587.09;5034242;28;20033;-86
2022/09/09 01:52:51;;;;;;;5.37;3.40;;;;;;;13.09;100.00;100583.78;5035285;28;20045;-85
2022/09/09 01:55:18;;;;;;;4.40;3.30;;;;;;;13.05;100.00;100588.84;5034909;28;20449;-85
2022/09/09 01:57:46;;;;;;;7.73;3.70;;;;;;;13.07;100.00;100583.19;5034654;28;20040;-86
2022/09/09 02:00:14;;;;;;;8.57;3.70;;;;;;;13.06;100.00;100586.97;5034880;28;20036;-86
2022/09/09 02:02:58;;;;;;;4.97;3.50;;;;;;;13.06;100.00;100593.25;5015398;28;20050;-86
2022/09/09 02:05:48;;;;;;;7.65;3.70;;;;;;;13.06;100.00;100578.81;5034804;28;20037;-85
2022/09/09 02:08:33;;;;;;;8.60;4.00;;;;;;;13.07;100.00;100581.31;5035048;28;20025;-85
2022/09/09 02:11:10;;;;;;;6.03;3.40;;;;;;;13.03;100.00;100571.97;5016111;28;20029;-85
2022/09/09 02:13:38;;;;;;;6.77;3.57;;;;;;;13.03;100.00;100571.97;5034227;28;20044;-87
2022/09/09 02:16:23;;;;;;;4.83;3.33;;;;;;;13.02;100.00;100566.75;5001560;28;20057;-85
2022/09/09 02:18:54;;;;;;;7.10;3.80;;;;;;;13.02;100.00;100572.19;5034437;28;20090;-86
2022/09/09 02:21:22;;;;;;;6.90;3.70;;;;;;;12.96;100.00;100560.34;5012274;28;20033;-85
2022/09/09 02:23:51;;;;;;;7.87;3.77;;;;;;;12.99;100.00;100566.16;5016763;28;20591;-85
2022/09/09 02:26:21;;;;;;;7.03;3.77;;;;;;;12.99;100.00;100562.63;5034467;28;20037;-85
2022/09/09 02:28:49;;;;;;;7.10;3.87;;;;;;;12.99;100.00;100551.72;5034444;28;20065;-86
2022/09/09 02:31:19;;;;;;;6.27;3.97;;;;;;;13.00;100.00;100564.25;5034075;28;20457;-86
2022/09/09 02:33:52;;;;;;;7.17;3.70;;;;;;;13.01;100.00;100552.31;5034727;28;20087;-85
2022/09/09 02:36:19;;;;;;;9.83;4.57;;;;;;;13.02;100.00;100561.31;5033938;28;20029;-86
2022/09/09 02:38:52;;;;;;;6.33;4.10;;;;;;;13.03;100.00;100562.94;5034151;28;20451;-85
2022/09/09 02:41:22;;;;;;;8.00;4.03;;;;;;;13.03;100.00;100561.06;5033963;28;20041;-85
2022/09/09 02:43:47;;;;;;;8.80;4.10;;;;;;;13.00;100.00;100564.25;5034262;28;20044;-86
2022/09/09 02:46:33;;;;;;;6.63;4.23;;;;;;;13.04;100.00;100564.63;5034542;28;20036;-85
2022/09/09 02:49:03;;;;;;;6.23;3.80;;;;;;;12.99;100.00;100554.44;5014511;28;20040;-85
2022/09/09 02:51:28;;;;;;;5.40;3.40;;;;;;;13.01;100.00;100563.19;5034337;28;20108;-85
2022/09/09 02:54:16;;;;;;;8.47;3.90;;;;;;;12.98;100.00;100561.75;5034754;28;20051;-86
2022/09/09 02:56:49;;;;;;;7.60;3.73;;;;;;;13.00;100.00;100567.81;5034245;28;20056;-85
2022/09/09 02:59:15;;;;;;;8.60;3.70;;;;;;;12.98;100.00;100569.91;5014769;28;20477;-85
2022/09/09 03:01:41;;;;;;;11.30;3.80;;;;;;;12.96;100.00;100568.50;5034250;28;20080;-85
2022/09/09 03:04:06;;;;;;;7.60;3.80;;;;;;;12.97;100.00;100570.16;5033904;28;20070;-85
2022/09/09 03:06:38;;;;;;;10.60;4.27;;;;;;;12.96;100.00;100580.22;5033943;28;20049;-85
2022/09/09 03:09:03;;;;;;;8.10;4.10;;;;;;;12.96;100.00;100576.66;5033798;28;20051;-86
2022/09/09 03:11:29;;;;;;;8.27;4.20;;;;;;;12.94;100.00;100576.91;5033915;28;21340;-86
2022/09/09 03:13:55;;;;;;;5.90;3.77;;;;;;;12.95;100.00;100570.41;5034196;28;20057;-86
2022/09/09 03:16:24;;;;;;;8.23;3.83;;;;;;;12.95;100.00;100572.31;5033853;28;20045;-87
2022/09/09 03:18:50;;;;;;;6.00;3.73;;;;;;;12.96;100.00;100571.22;5034290;28;20394;-87
2022/09/09 03:21:15;;;;;;;7.50;3.70;;;;;;;12.95;100.00;100566.88;5034399;28;20032;-85
2022/09/09 03:23:41;;;;;;;6.77;3.70;;;;;;;12.91;100.00;100563.78;5034219;28;20382;-86
2022/09/09 03:26:07;;;;;;;7.83;4.27;;;;;;;12.95;100.00;100566.88;5016775;28;20079;-85
2022/09/09 03:28:32;;;;;;;7.67;3.90;;;;;;;12.93;100.00;100575.25;5018648;28;20469;-85
2022/09/09 03:31:02;;;;;;;6.73;4.03;;;;;;;12.96;100.00;100580.22;5018335;28;20387;-85
2022/09/09 03:33:29;;;;;;;9.33;4.33;;;;;;;12.93;100.00;100564.38;5037028;28;20400;-86
2022/09/09 03:35:56;;;;;;;6.73;4.00;;;;;;;12.98;100.00;100571.81;5019548;28;20511;-85
2022/09/09 03:38:23;;;;;;;9.07;4.40;;;;;;;12.96;100.00;100573.94;5036124;28;20515;-86
2022/09/09 03:40:57;;;;;;;9.40;4.60;;;;;;;12.99;100.00;100568.88;5037552;28;20056;-86
2022/09/09 03:43:26;;;;;;;12.95;4.80;;;;;;;13.04;100.00;100576.34;5018177;28;20115;-85
2022/09/09 03:45:52;;;;;;;8.07;4.57;;;;;;;13.06;100.00;100574.19;5037670;28;20041;-86
2022/09/09 03:48:18;;;;;;;13.10;4.47;;;;;;;13.03;100.00;100580.13;5036663;28;20037;-88
2022/09/09 03:50:49;;;;;;;9.47;4.60;;;;;;;13.07;100.00;100575.00;5036816;28;20033;-86
2022/09/09 03:53:16;;;;;;;8.83;4.40;;;;;;;13.09;100.00;100575.63;5036575;28;20151;-85
2022/09/09 03:55:46;;;;;;;9.57;4.17;;;;;;;13.09;100.00;100567.47;5037372;28;20075;-85
2022/09/09 03:58:13;;;;;;;10.77;4.53;;;;;;;13.10;100.00;100571.84;5036091;28;20397;-87
2022/09/09 04:00:42;;;;;;;7.23;4.37;;;;;;;13.12;100.00;100575.16;5037187;28;20029;-87
2022/09/09 04:03:09;;;;;;;9.70;4.20;;;;;;;13.09;100.00;100562.84;5035985;28;20394;-87
2022/09/09 04:05:34;;;;;;;10.30;3.77;;;;;;;13.11;100.00;100558.00;5036811;28;20029;-86
2022/09/09 04:08:00;;;;;;;9.80;4.23;;;;;;;13.14;100.00;100562.97;5036898;28;20041;-85
2022/09/09 04:10:26;;;;;;;8.93;3.93;;;;;;;13.13;100.00;100561.31;5036325;28;20045;-86
2022/09/09 04:12:52;;;;;;;8.30;4.07;;;;;;;13.17;100.00;100558.94;5036144;28;20053;-87
2022/09/09 04:15:18;;;;;;;11.27;4.13;;;;;;;13.16;100.00;100563.56;5036479;28;20074;-86
2022/09/09 04:17:44;;;;;;;9.43;4.07;;;;;;;13.16;100.00;100557.28;5036238;28;20152;-86
2022/09/09 04:20:11;;;;;;;9.20;4.03;;;;;;;13.18;100.00;100560.63;5036491;28;20493;-86
2022/09/09 04:22:38;;;;;;;10.00;3.90;;;;;;;13.20;100.00;100546.78;5036262;28;20078;-86
2022/09/09 04:25:05;;;;;;;7.80;4.13;;;;;;;13.21;100.00;100556.59;5036166;28;20037;-86
2022/09/09 04:27:31;;;;;;;10.27;4.00;;;;;;;13.24;100.00;100554.22;5036982;28;20112;-85
2022/09/09 04:29:57;;;;;;;9.77;4.20;;;;;;;13.25;100.00;100557.78;5036362;28;20060;-85
2022/09/09 04:32:23;;;;;;;10.37;3.97;;;;;;;13.27;100.00;100555.63;5035825;28;20159;-86
2022/09/09 04:34:48;;;;;;;9.10;4.30;;;;;;;13.24;100.00;100548.78;5036311;28;20037;-88
2022/09/09 04:37:14;;;;;;;10.03;4.40;;;;;;;13.27;100.00;100556.47;5034422;28;20084;-87
2022/09/09 04:39:40;;;;;;;12.77;4.77;;;;;;;13.31;100.00;100554.94;5035964;28;20051;-86
2022/09/09 04:42:05;;;;;;;11.23;4.70;;;;;;;13.34;100.00;100557.19;5035681;28;20049;-86
2022/09/09 04:44:30;;;;;;;8.90;4.43;;;;;;;13.33;100.00;100551.97;5036436;28;20654;-87
2022/09/09 04:46:56;;;;;;;11.47;4.77;;;;;;;13.41;100.00;100554.38;5016591;28;20068;-87
2022/09/09 04:49:21;;;;;;;10.10;4.43;;;;;;;13.41;100.00;100542.63;5036107;28;21459;-86
2022/09/09 04:51:49;;;;;;;8.27;4.20;;;;;;;13.45;100.00;100543.81;5035982;28;20051;-85
2022/09/09 04:54:14;;;;;;;12.80;4.67;;;;;;;13.47;100.00;100542.50;5036010;28;20034;-85
2022/09/09 04:56:41;;;;;;;10.33;4.60;;;;;;;13.50;100.00;100543.94;5035532;28;20637;-87
2022/09/09 04:59:07;;;;;;;8.97;4.67;;;;;;;13.54;100.00;100539.66;5035504;28;20037;-87
2022/09/09 05:01:33;;;;;;;9.13;4.70;;;;;;;13.57;100.00;100546.53;5035136;28;20051;-87
2022/09/09 05:03:59;;;;;;;12.90;4.80;;;;;;;13.57;100.00;100538.38;5016609;28;20060;-86
2022/09/09 05:06:24;;;;;;;11.93;4.40;;;;;;;13.60;100.00;100537.88;5035594;28;20044;-86
2022/09/09 05:08:50;;;;;;;11.07;4.40;;;;;;;13.62;100.00;100547.47;5034743;28;20567;-85
2022/09/09 05:11:24;;;;;;;11.13;4.03;;;;;;;13.64;100.00;100542.63;5035327;28;20037;-85
2022/09/09 05:13:50;;;;;;;10.93;4.45;;;;;;;13.67;100.00;100542.13;5034896;28;20161;-87
2022/09/09 05:16:16;;;;;;;14.67;5.27;;;;;;;13.64;100.00;100531.72;5034920;28;20477;-87
2022/09/09 05:18:42;;;;;;;10.07;4.23;;;;;;;13.71;100.00;100541.66;5016850;28;20068;-86
2022/09/09 05:21:09;;;;;;;12.73;4.30;;;;;;;13.72;100.00;100538.72;5035254;28;20706;-84
2022/09/09 05:23:35;;;;;;;9.43;4.00;;;;;;;13.74;100.00;100541.19;5035417;28;20045;-86
2022/09/09 05:26:01;;;;;;;13.10;4.60;;;;;;;13.74;100.00;100547.44;5034522;28;20146;-86
2022/09/09 05:28:27;;;;;;;11.00;3.70;;;;;;;13.75;100.00;100537.38;5013489;28;20124;-87
2022/09/09 05:31:00;;;;;;;9.10;3.70;;;;;;;13.74;100.00;100533.84;5034580;28;20697;-87
2022/09/09 05:33:27;;;;;;;13.77;4.10;;;;;;;13.70;100.00;100534.56;5034503;28;20052;-84
2022/09/09 05:36:15;;;;;;;10.57;3.90;;;;;;;13.71;100.00;100533.47;5034867;28;20758;-87
2022/09/09 05:38:41;;;;;;;12.47;4.00;;;;;;;13.67;100.00;100536.69;5034449;28;20091;-87
2022/09/09 05:41:07;;;;;;;13.40;4.67;;;;;;;13.68;100.00;100532.91;5035172;28;20036;-87
2022/09/09 05:43:35;;;;;;;11.33;4.00;;;;;;;13.67;100.00;100538.59;5034737;28;20045;-88
2022/09/09 05:46:07;;;;;;;13.73;4.13;;;;;;;13.66;100.00;100537.75;5035223;28;20122;-88
2022/09/09 05:48:38;;;;;;;13.27;4.20;;;;;;;13.68;100.00;100535.63;5016224;28;20032;-88
2022/09/09 05:51:06;;;;;;;11.63;4.40;;;;;;;13.69;100.00;100541.88;5034738;28;20571;-87
2022/09/09 05:53:32;;;;;;;9.30;4.13;;;;;;;13.71;100.00;100539.78;5034016;28;20562;-86
2022/09/09 05:56:11;;;;;;;15.23;4.50;;;;;;;13.76;100.00;100544.47;5035565;28;20041;-86
2022/09/09 05:58:37;;;;;;;16.57;5.10;;;;;;;13.78;100.00;100547.81;5011517;28;20595;-87
2022/09/09 06:01:11;;;;;;;12.87;4.83;;;;;;;13.85;100.00;100548.50;5035050;28;20041;-86
2022/09/09 06:03:39;;;;;;;14.73;4.60;;;;;;;13.89;100.00;100549.66;5033837;28;20033;-86
2022/09/09 06:06:07;;;;;;;13.67;4.50;;;;;;;13.98;100.00;100556.38;5034103;28;20483;-86
2022/09/09 06:08:36;;;;;;;9.73;4.20;;;;;;;14.03;100.00;100555.66;5033655;28;20033;-86
2022/09/09 06:11:10;;;;;;;10.57;4.03;;;;;;;14.03;100.00;100550.19;5033633;28;20032;-87
2022/09/09 06:13:37;;;;;;;13.52;4.22;;;;;;;14.07;100.00;100556.81;5033963;28;20091;-84
2022/09/09 06:16:04;;;;;;;10.60;3.90;;;;;;;14.07;100.00;100561.44;5033143;28;20036;-85
2022/09/09 06:18:29;;;;;;;10.50;3.50;;;;;;;14.11;100.00;100558.00;5034201;28;20043;-86
2022/09/09 06:21:00;;;;;;;11.23;4.10;;;;;;;14.21;100.00;100553.81;5030981;28;20045;-86
2022/09/09 06:23:26;;;;;;;9.37;3.60;;;;;;;14.29;100.00;100553.41;5033774;28;20033;-85
2022/09/09 06:26:00;;;;;;;12.50;4.27;;;;;;;14.40;100.00;100559.88;5014170;28;20504;-87
2022/09/09 06:28:25;;;;;;;8.02;3.50;;;;;;;14.45;100.00;100554.53;5032858;28;20578;-85
2022/09/09 06:30:58;;;;;;;13.40;3.60;;;;;;;14.53;100.00;100554.97;5015447;28;20338;-84
2022/09/09 06:33:23;;;;;;;9.40;3.20;;;;;;;14.59;100.00;100553.19;5032742;28;20080;-84
2022/09/09 06:35:53;;;;;;;11.00;3.60;;;;;;;14.64;100.00;100547.81;5014911;28;20558;-88
2022/09/09 06:38:18;;;;;;;8.90;3.30;;;;;;;14.76;100.00;100557.84;5032135;28;20405;-85
2022/09/09 06:40:59;;;;;;;14.67;4.07;;;;;;;14.89;100.00;100557.53;5033906;28;20044;-85
2022/09/09 06:43:26;;;;;;;14.70;3.60;;;;;;;14.96;100.00;100558.19;5034100;28;20037;-87
2022/09/09 06:45:56;;;;;;;12.13;3.30;;;;;;;15.02;100.00;100554.44;5034130;28;20612;-85
2022/09/09 06:48:21;;;;;;;16.67;3.50;;;;;;;15.09;100.00;100556.19;5015048;28;20052;-85
2022/09/09 06:50:47;;;;;;;9.93;3.20;;;;;;;15.08;100.00;100549.06;5034560;28;20061;-87
2022/09/09 06:53:16;;;;;;;10.07;3.30;;;;;;;15.15;100.00;100549.72;5030343;28;20329;-88
2022/09/09 06:55:44;;;;;;;9.83;3.20;;;;;;;15.25;100.00;100555.34;5034258;28;20036;-87
2022/09/09 06:58:09;;;;;;;11.73;3.73;;;;;;;15.31;100.00;100548.91;5010527;28;20439;-88
2022/09/09 07:00:37;;;;;;;11.33;3.10;;;;;;;15.23;100.00;100557.50;5034470;28;20148;-86
2022/09/09 07:03:03;;;;;;;9.47;3.17;;;;;;;15.24;100.00;100550.94;5037466;28;20628;-89
2022/09/09 07:05:28;;;;;;;13.43;3.00;;;;;;;15.28;100.00;100538.47;5038632;28;20078;-88
2022/09/09 07:07:53;;;;;;;11.20;3.67;;;;;;;15.41;100.00;100544.63;5037958;28;20060;-88
2022/09/09 07:10:19;;;;;;;9.77;3.13;;;;;;;15.36;100.00;100537.22;5035935;28;20124;-89
2022/09/09 07:12:44;;;;;;;10.90;3.00;;;;;;;15.47;100.00;100532.72;5037517;28;20053;-92
2022/09/09 07:15:09;;;;;;;10.03;3.07;;;;;;;15.59;99.84;100547.09;5037568;28;20123;-89
2022/09/09 07:17:35;;;;;;;10.07;3.10;;;;;;;15.76;99.77;100555.25;5036559;28;20124;-88
2022/09/09 07:20:02;;;;;;;11.47;3.30;;;;;;;15.91;99.85;100545.59;5037619;28;20071;-91
2022/09/09 07:22:28;;;;;;;12.60;3.00;;;;;;;15.98;98.75;100541.59;5037499;28;20029;-87
2022/09/09 07:24:53;;;;;;;11.53;2.97;;;;;;;15.98;96.40;100546.22;5018030;28;20231;-88
2022/09/09 07:27:19;;;;;;;10.70;2.90;;;;;;;16.07;95.55;100538.41;5017505;28;20905;-92
2022/09/09 07:29:45;;;;;;;9.43;2.80;;;;;;;16.02;95.35;100550.94;5036891;28;20143;-88
2022/09/09 07:32:10;;;;;;;11.83;2.90;;;;;;;16.01;94.86;100546.53;5037738;28;20037;-91
2022/09/09 07:34:36;;;;;;;11.90;2.80;;;;;;;16.04;94.43;100534.28;5038326;28;21077;-89
2022/09/09 07:37:01;;;;;;;11.37;2.93;;;;;;;16.10;93.09;100519.59;5037458;28;20040;-87
2022/09/09 07:39:27;;;;;;;9.80;2.47;;;;;;;16.19;92.79;100539.09;5016679;28;20039;-89
2022/09/09 07:41:54;;;;;;;7.30;2.70;;;;;;;16.25;92.00;100539.97;5037390;28;20124;-88
2022/09/09 07:44:27;;;;;;;9.10;2.83;;;;;;;16.30;92.83;100543.56;5036707;28;20119;-89
2022/09/09 07:46:52;;;;;;;9.10;2.83;;;;;;;16.29;91.45;100535.63;5018297;28;20029;-86
2022/09/09 07:49:17;;;;;;;11.47;2.70;;;;;;;16.22;92.06;100546.75;5037079;28;20045;-90
2022/09/09 07:51:45;;;;;;;11.73;2.90;;;;;;;16.14;92.10;100537.13;5037571;28;20626;-89
2022/09/09 07:54:15;;;;;;;10.73;2.53;;;;;;;16.16;91.80;100548.63;5036514;28;20028;-91
2022/09/09 07:56:41;;;;;;;7.63;2.47;;;;;;;16.11;91.16;100550.47;5037747;28;21407;-87
2022/09/09 07:59:07;;;;;;;7.50;2.60;;;;;;;16.25;89.15;100553.63;5036949;28;20083;-88
2022/09/09 08:01:38;;;;;;;8.10;2.40;;;;;;;16.27;89.90;100555.03;5037520;28;20033;-89
2022/09/09 08:04:15;;;;;;;13.67;3.10;;;;;;;16.15;91.27;100552.44;5037118;28;20029;-89
2022/09/09 08:06:42;;;;;;;8.63;2.30;;;;;;;16.20;90.66;100544.28;5018471;28;20246;-87
2022/09/09 08:09:08;;;;;;;9.33;2.57;;;;;;;16.22;90.31;100557.69;5019170;28;20083;-89
2022/09/09 08:11:35;;;;;;;11.80;2.90;;;;;;;16.35;89.40;100551.03;5033643;28;20072;-92
2022/09/09 08:14:01;;;;;;;9.10;2.67;;;;;;;16.33;89.73;100545.81;5036998;28;20159;-86
2022/09/09 08:16:30;;;;;;;10.10;2.60;;;;;;;16.37;90.34;100557.88;5015797;28;20123;-87
2022/09/09 08:18:57;;;;;;;9.87;2.77;;;;;;;16.35;89.59;100557.31;5036634;28;20060;-88
2022/09/09 08:21:26;;;;;;;13.37;2.93;;;;;;;16.46;90.11;100563.69;5037057;28;20037;-88
2022/09/09 08:23:53;;;;;;;11.43;2.80;;;;;;;16.50;89.57;100558.56;5036511;28;20032;-87
2022/09/09 08:26:24;;;;;;;9.07;2.60;;;;;;;16.49;89.59;100559.63;5037005;28;20106;-91
2022/09/09 08:28:52;;;;;;;9.43;2.90;;;;;;;16.41;89.46;100560.09;5036769;28;20036;-89
2022/09/09 08:31:22;;;;;;;7.93;2.30;;;;;;;16.41;88.18;100558.16;5036368;28;20033;-85
2022/09/09 08:33:48;;;;;;;8.20;2.40;;;;;;;16.55;86.85;100566.81;5036178;28;20135;-87
2022/09/09 08:36:18;;;;;;;9.70;2.97;;;;;;;16.47;89.81;100573.56;5019538;28;20071;-92
2022/09/09 08:38:47;;;;;;;12.43;2.97;;;;;;;16.52;88.93;100561.84;5036542;28;20155;-93
2022/09/09 08:41:31;;;;;;;9.57;2.53;;;;;;;16.64;89.24;100581.63;5036245;28;20631;-89
2022/09/09 08:44:30;;;;;;;11.25;2.47;;;;;;;16.54;88.10;100578.81;5036818;28;20079;-86
2022/09/09 08:47:14;;;;;;;11.13;2.70;;;;;;;16.63;89.11;100577.28;5036889;28;20102;-88
2022/09/09 08:49:49;;;;;;;7.90;2.50;;;;;;;16.57;87.03;100581.03;5036752;28;20033;-88
2022/09/09 08:52:23;;;;;;;8.27;2.43;;;;;;;16.59;87.81;100565.22;5017846;28;20104;-90
2022/09/09 08:54:50;;;;;;;8.45;2.72;;;;;;;16.63;87.38;100580.00;5037067;28;20041;-90
2022/09/09 08:57:26;;;;;;;7.63;2.70;;;;;;;16.62;86.67;100572.03;5035830;28;20098;-87
2022/09/09 08:59:55;;;;;;;10.73;2.30;;;;;;;16.68;87.72;100584.69;5036252;28;20653;-89
2022/09/09 09:02:26;;;;;;;10.03;2.80;;;;;;;16.74;88.00;100580.94;5036204;28;20055;-88
2022/09/09 09:05:05;;;;;;;6.77;2.17;;;;;;;16.62;86.79;100583.81;5036032;28;20064;-90
2022/09/09 09:07:52;;;;;;;8.07;2.53;;;;;;;16.68;87.53;100580.03;5014729;28;20029;-89
2022/09/09 09:10:38;;;;;;;8.60;2.33;;;;;;;16.75;87.24;100589.97;5015647;28;20043;-90
2022/09/09 09:13:13;;;;;;;13.47;2.63;;;;;;;16.65;86.30;100594.25;5017475;28;20560;-91
2022/09/09 09:15:40;;;;;;;10.20;2.50;;;;;;;16.62;87.09;100591.19;5036368;28;20036;-90
2022/09/09 09:18:12;;;;;;;7.77;2.47;;;;;;;16.54;85.84;100589.75;5035348;28;20036;-87
2022/09/09 09:20:52;;;;;;;13.10;2.67;;;;;;;16.60;86.84;100591.44;5035602;28;20040;-93
2022/09/09 09:23:23;;;;;;;11.53;2.63;;;;;;;16.60;86.18;100596.91;5035741;28;20043;-88
2022/09/09 09:25:52;;;;;;;8.43;2.47;;;;;;;16.61;87.33;100593.09;5018342;28;20029;-90
2022/09/09 09:28:24;;;;;;;9.10;2.50;;;;;;;16.65;86.73;100598.91;5036297;28;20029;-94
2022/09/09 09:30:58;;;;;;;10.53;2.63;;;;;;;16.70;86.53;100594.28;5036290;28;20029;-87
2022/09/09 09:33:46;;;;;;;;;;;;;;;16.75;85.91;100592.69;5036200;28;20090;-92
2022/09/09 09:36:13;;;;;;;8.20;2.90;;;;;;;16.74;85.16;100585.56;5035419;28;19921;-89
2022/09/09 09:38:39;;;;;;;10.33;2.67;;;;;;;16.80;86.36;100593.56;5035017;28;20135;-89
2022/09/09 09:41:05;;;;;;;12.13;2.80;;;;;;;16.80;86.33;100592.75;5035425;28;20029;-90
2022/09/09 09:43:36;;;;;;;9.93;3.00;;;;;;;16.76;86.24;100588.88;5035332;28;20043;-88
2022/09/09 09:46:17;;;;;;;10.23;2.93;;;;;;;16.78;85.58;100603.97;5035585;28;20445;-88
2022/09/09 09:48:42;;;;;;;11.07;2.30;;;;;;;16.76;84.58;100605.28;5035437;28;20538;-87
2022/09/09 09:51:15;;;;;;;8.40;2.40;;;;;;;16.82;85.26;100598.78;5034510;28;20033;-92
2022/09/09 09:53:41;;;;;;;6.80;2.50;;;;;;;16.79;85.90;100593.81;5016927;28;20519;-93
2022/09/09 09:56:10;;;;;;;9.07;2.30;;;;;;;16.84;84.86;100585.66;5035504;28;20041;-93
2022/09/09 09:58:38;;;;;;;8.07;2.20;;;;;;;16.93;85.50;100595.09;5034643;28;20083;-90
2022/09/09 10:01:04;;;;;;;10.27;2.90;;;;;;;16.97;85.29;100588.00;5014711;28;20036;-91
2022/09/09 10:03:32;;;;;;;8.10;2.20;;;;;;;16.84;86.35;100586.47;5014499;28;20047;-90
2022/09/09 10:05:58;;;;;;;9.40;2.60;;;;;;;16.67;88.77;100591.25;5015598;28;20045;-90
2022/09/09 10:08:26;;;;;;;9.67;2.40;;;;;;;16.62;88.45;100586.56;5035505;28;20041;-88
2022/09/09 10:11:06;;;;;;;9.50;2.80;;;;;;;16.67;88.01;100583.88;5017563;28;20041;-86
2022/09/09 10:13:50;;;;;;;10.93;2.40;;;;;;;16.66;87.80;100590.44;5033210;28;20131;-91
2022/09/09 10:16:27;;;;;;;10.53;2.50;;;;;;;16.58;88.62;100590.06;5034793;28;20036;-92
2022/09/09 10:19:00;;;;;;;8.93;2.37;;;;;;;16.51;91.15;100598.50;5033669;28;20473;-84
2022/09/09 10:21:46;;;;;;;10.93;2.60;;;;;;;16.35;93.77;100608.44;5034465;28;21205;-88
2022/09/09 10:24:36;;;;;;;10.87;2.47;;;;;;;16.08;94.98;100583.78;5034229;28;20033;-88
2022/09/09 10:27:05;;;;;;;12.60;2.83;;;;;;;15.99;97.06;100597.06;5034483;28;20044;-86
2022/09/09 10:29:38;;;;;;;13.13;3.00;;;;;;;15.97;97.98;100601.97;5034699;28;20045;-88
2022/09/09 10:32:20;;;;;;;9.67;2.83;;;;;;;15.92;98.58;100599.97;5035287;28;20239;-86
2022/09/09 10:35:04;;;;;;;10.17;3.00;;;;;;;15.97;100.00;100600.06;5035722;28;20041;-85
2022/09/09 10:37:42;;;;;;;12.07;3.20;;;;;;;16.06;99.64;100607.81;5039008;28;20035;-87
2022/09/09 10:40:34;;;;;;;11.27;2.90;;;;;;;15.97;98.42;100605.50;5038052;28;20189;-87
2022/09/09 10:43:15;;;;;;;11.30;3.00;;;;;;;16.04;100.00;100613.53;5016128;28;20140;-89
2022/09/09 10:46:03;;;;;;;8.13;3.00;;;;;;;15.91;99.41;100601.09;5038229;28;20140;-87
2022/09/09 10:48:39;;;;;;;9.37;3.00;;;;;;;15.97;99.66;100607.44;5037759;28;20529;-86
2022/09/09 10:51:10;;;;;;;7.87;3.30;;;;;;;15.92;100.00;100602.72;5038623;28;20147;-88
2022/09/09 10:54:13;;;;;;;9.70;3.23;;;;;;;15.98;100.00;100612.63;5038341;28;20028;-88
2022/09/09 10:56:42;;;;;;;10.90;3.07;;;;;;;15.92;99.58;100599.16;5037478;28;20032;-88
2022/09/09 10:59:20;;;;;;;6.90;2.67;;;;;;;15.92;100.00;100605.44;5038013;28;20033;-90
2022/09/09 11:02:16;;;;;;;5.67;2.63;;;;;;;15.89;100.00;100610.59;5038153;28;20040;-92
2022/09/09 11:04:55;;;;;;;11.13;3.10;;;;;;;15.91;100.00;100595.63;5037963;28;20703;-90
2022/09/09 11:07:53;;;;;;;10.73;3.40;;;;;;;15.91;100.00;100603.81;5037460;28;20115;-87
2022/09/09 11:10:48;;;;;;;10.77;3.50;;;;;;;16.01;100.00;100603.09;4990827;28;20064;-87
2022/09/09 11:13:25;;;;;;;9.90;3.53;;;;;;;15.94;100.00;100597.00;5038376;28;20628;-88
2022/09/09 11:16:04;;;;;;;10.93;3.90;;;;;;;16.00;100.00;100602.25;5037722;28;21759;-87
2022/09/09 11:18:36;;;;;;;8.57;3.50;;;;;;;16.05;100.00;100593.31;5037335;28;20040;-91
2022/09/09 11:21:06;;;;;;;11.83;3.60;;;;;;;16.06;100.00;100596.88;5037437;28;20048;-86
2022/09/09 11:23:48;;;;;;;10.40;3.50;;;;;;;16.02;100.00;100596.56;5037855;28;20033;-87
2022/09/09 11:26:38;;;;;;;9.93;3.30;;;;;;;15.94;100.00;100592.38;5037280;28;20037;-86
2022/09/09 11:29:19;;;;;;;9.13;3.70;;;;;;;16.03;100.00;100590.00;5038081;28;20522;-92
2022/09/09 11:32:14;;;;;;;9.50;3.60;;;;;;;16.08;100.00;100600.19;5037735;28;20041;-86
2022/09/09 11:34:59;;;;;;;9.50;3.17;;;;;;;16.14;100.00;100601.88;5038067;28;20037;-90
2022/09/09 11:38:02;;;;;;;9.97;3.00;;;;;;;16.24;100.00;100582.03;5037162;28;20041;-92